createdAt,value
2018-02-17T00:00:33.532Z,25.60
2018-02-17T00:01:33.551Z,28.30
2018-02-17T00:02:33.544Z,29.30
2018-02-17T00:03:33.540Z,28.40
2018-02-17T00:04:33.548Z,32.40
2018-02-17T00:05:33.545Z,27.90
2018-02-17T00:06:33.558Z,29.50
2018-02-17T00:07:33.559Z,28.50
2018-02-17T00:08:33.554Z,27.60
2018-02-17T00:09:33.551Z,29.10
2018-02-17T00:10:33.557Z,30.30
2018-02-17T00:11:33.567Z,28.80
2018-02-17T00:12:33.563Z,32.20
2018-02-17T00:13:33.577Z,28.60
2018-02-17T00:14:33.585Z,33.40
2018-02-17T00:15:33.583Z,28.60
2018-02-17T00:16:33.591Z,26.70
2018-02-17T00:17:33.577Z,28.70
2018-02-17T00:18:33.597Z,34.30
2018-02-17T00:19:33.590Z,30.10
2018-02-17T00:20:33.586Z,28.40
2018-02-17T00:21:33.594Z,31.80
2018-02-17T00:22:33.590Z,30.80
2018-02-17T00:23:33.597Z,38.00
2018-02-17T00:24:33.622Z,39.10
2018-02-17T00:25:33.607Z,41.20
2018-02-17T00:26:33.612Z,40.20
2018-02-17T00:27:33.612Z,43.90
2018-02-17T00:28:33.618Z,40.80
2018-02-17T00:29:33.626Z,41.30
2018-02-17T00:30:33.631Z,39.90
2018-02-17T00:31:33.615Z,43.50
2018-02-17T00:32:33.623Z,45.40
2018-02-17T00:33:33.620Z,42.80
2018-02-17T00:34:33.628Z,44.70
2018-02-17T00:35:33.629Z,43.70
2018-02-17T00:36:34.653Z,49.30
2018-02-17T00:37:33.643Z,46.30
2018-02-17T00:38:33.640Z,47.70
2018-02-17T00:39:33.637Z,50.20
2018-02-17T00:40:33.657Z,46.50
2018-02-17T00:41:33.642Z,42.60
2018-02-17T00:42:33.657Z,38.10
2018-02-17T00:43:33.656Z,39.80
2018-02-17T00:44:33.657Z,39.90
2018-02-17T00:45:33.671Z,38.70
2018-02-17T00:46:33.668Z,39.30
2018-02-17T00:47:33.672Z,32.30
2018-02-17T00:48:33.679Z,29.90
2018-02-17T00:49:33.671Z,32.40
2018-02-17T00:50:33.677Z,31.80
2018-02-17T00:51:33.683Z,41.70
2018-02-17T00:52:34.681Z,31.90
2018-02-17T00:53:33.686Z,36.10
2018-02-17T00:54:33.695Z,37.70
2018-02-17T00:55:33.691Z,33.70
2018-02-17T00:56:33.697Z,33.80
2018-02-17T00:57:33.686Z,33.10
2018-02-17T00:58:33.694Z,31.50
2018-02-17T00:59:33.694Z,32.20
2018-02-17T01:00:33.701Z,28.10
2018-02-17T01:01:33.703Z,31.60
2018-02-17T01:02:33.710Z,26.90
2018-02-17T01:03:33.707Z,31.70
2018-02-17T01:04:33.714Z,30.30
2018-02-17T01:05:33.711Z,28.30
2018-02-17T01:06:33.729Z,28.90
2018-02-17T01:07:33.732Z,31.00
2018-02-17T01:08:33.717Z,28.60
2018-02-17T01:09:33.721Z,27.20
2018-02-17T01:10:33.728Z,31.80
2018-02-17T01:11:33.730Z,27.70
2018-02-17T01:12:33.737Z,33.30
2018-02-17T01:13:33.734Z,31.10
2018-02-17T01:14:33.730Z,29.20
2018-02-17T01:15:33.757Z,32.60
2018-02-17T01:16:33.748Z,36.20
2018-02-17T01:17:33.738Z,34.80
2018-02-17T01:18:33.765Z,34.60
2018-02-17T01:19:33.746Z,29.60
2018-02-17T01:20:33.752Z,28.50
2018-02-17T01:21:33.749Z,28.00
2018-02-17T01:22:33.759Z,30.60
2018-02-17T01:23:33.754Z,31.50
2018-02-17T01:24:33.760Z,31.60
2018-02-17T01:25:33.759Z,28.90
2018-02-17T01:26:33.768Z,26.60
2018-02-17T01:27:33.772Z,25.90
2018-02-17T01:28:33.783Z,31.40
2018-02-17T01:29:33.812Z,31.90
2018-02-17T01:30:33.786Z,31.50
2018-02-17T01:31:33.778Z,32.00
2018-02-17T01:32:33.806Z,31.90
2018-02-17T01:33:33.783Z,33.30
2018-02-17T01:34:33.788Z,28.10
2018-02-17T01:35:33.789Z,29.50
2018-02-17T01:36:33.791Z,26.60
2018-02-17T01:37:33.787Z,27.00
2018-02-17T01:38:33.795Z,26.40
2018-02-17T01:39:33.798Z,30.70
2018-02-17T01:40:33.802Z,26.50
2018-02-17T01:41:33.798Z,30.00
2018-02-17T01:42:34.811Z,23.20
2018-02-17T01:43:33.801Z,25.40
2018-02-17T01:44:33.804Z,22.90
2018-02-17T01:45:33.810Z,24.70
2018-02-17T01:46:33.816Z,23.20
2018-02-17T01:47:33.808Z,26.40
2018-02-17T01:48:33.831Z,21.50
2018-02-17T01:49:33.812Z,23.80
2018-02-17T01:50:33.819Z,23.90
2018-02-17T01:51:33.820Z,24.20
2018-02-17T01:52:33.830Z,18.70
2018-02-17T01:53:33.836Z,18.80
2018-02-17T01:54:33.835Z,18.20
2018-02-17T01:55:33.826Z,19.50
2018-02-17T01:56:33.834Z,22.50
2018-02-17T01:57:33.830Z,17.30
2018-02-17T01:58:33.836Z,18.10
2018-02-17T01:59:33.842Z,21.40
2018-02-17T02:00:33.846Z,17.40
2018-02-17T02:01:33.837Z,20.20
2018-02-17T02:02:33.858Z,19.20
2018-02-17T02:03:33.842Z,16.50
2018-02-17T02:04:34.843Z,20.90
2018-02-17T02:05:33.849Z,16.70
2018-02-17T02:06:33.860Z,21.60
2018-02-17T02:07:33.848Z,17.40
2018-02-17T02:08:34.856Z,18.30
2018-02-17T02:09:33.852Z,15.40
2018-02-17T02:10:33.859Z,17.60
2018-02-17T02:11:33.859Z,15.20
2018-02-17T02:12:33.863Z,17.60
2018-02-17T02:13:33.859Z,16.60
2018-02-17T02:14:33.877Z,17.00
2018-02-17T02:15:33.874Z,18.20
2018-02-17T02:16:33.869Z,16.60
2018-02-17T02:17:33.870Z,16.70
2018-02-17T02:18:33.875Z,16.30
2018-02-17T02:19:33.888Z,21.40
2018-02-17T02:20:33.879Z,18.10
2018-02-17T02:21:33.882Z,20.60
2018-02-17T02:22:33.889Z,19.50
2018-02-17T02:23:33.930Z,17.40
2018-02-17T02:24:33.900Z,17.30
2018-02-17T02:25:33.899Z,19.60
2018-02-17T02:26:33.889Z,19.30
2018-02-17T02:27:33.889Z,16.70
2018-02-17T02:28:33.895Z,17.30
2018-02-17T02:29:33.895Z,16.90
2018-02-17T02:30:33.916Z,14.30
2018-02-17T02:31:33.901Z,18.10
2018-02-17T02:32:33.909Z,18.70
2018-02-17T02:33:33.901Z,15.20
2018-02-17T02:34:33.906Z,18.90
2018-02-17T02:35:33.907Z,16.50
2018-02-17T02:36:33.917Z,17.50
2018-02-17T02:37:33.911Z,18.30
2018-02-17T02:38:33.913Z,17.80
2018-02-17T02:39:33.912Z,19.70
2018-02-17T02:40:33.923Z,20.40
2018-02-17T02:41:33.910Z,22.50
2018-02-17T02:42:33.922Z,17.70
2018-02-17T02:43:33.922Z,19.00
2018-02-17T02:44:33.930Z,15.20
2018-02-17T02:45:33.924Z,17.50
2018-02-17T02:46:33.928Z,18.70
2018-02-17T02:47:33.926Z,20.00
2018-02-17T02:48:33.935Z,18.70
2018-02-17T02:49:33.936Z,19.60
2018-02-17T02:50:33.965Z,18.30
2018-02-17T02:51:33.932Z,15.80
2018-02-17T02:52:33.943Z,17.20
2018-02-17T02:53:33.989Z,21.10
2018-02-17T02:54:33.953Z,20.60
2018-02-17T02:55:33.939Z,18.30
2018-02-17T02:56:33.952Z,19.80
2018-02-17T02:57:33.940Z,18.30
2018-02-17T02:58:33.954Z,22.50
2018-02-17T02:59:33.951Z,19.40
2018-02-17T03:00:33.950Z,20.70
2018-02-17T03:01:33.956Z,17.80
2018-02-17T03:02:33.960Z,18.70
2018-02-17T03:03:33.954Z,20.30
2018-02-17T03:04:33.971Z,20.50
2018-02-17T03:05:33.954Z,17.60
2018-02-17T03:06:34.002Z,20.30
2018-02-17T03:07:33.964Z,20.60
2018-02-17T03:08:33.966Z,17.80
2018-02-17T03:09:33.975Z,15.80
2018-02-17T03:10:33.991Z,21.80
2018-02-17T03:11:33.966Z,20.30
2018-02-17T03:12:33.981Z,19.60
2018-02-17T03:13:33.975Z,19.60
2018-02-17T03:14:33.980Z,15.80
2018-02-17T03:15:33.977Z,19.70
2018-02-17T03:16:33.983Z,18.50
2018-02-17T03:17:34.028Z,17.50
2018-02-17T03:18:33.977Z,18.80
2018-02-17T03:19:33.986Z,19.70
2018-02-17T03:20:34.007Z,19.60
2018-02-17T03:21:33.996Z,15.50
2018-02-17T03:22:33.996Z,16.10
2018-02-17T03:23:33.991Z,22.10
2018-02-17T03:24:34.006Z,15.50
2018-02-17T03:25:33.999Z,18.90
2018-02-17T03:26:33.993Z,20.90
2018-02-17T03:27:33.993Z,19.30
2018-02-17T03:28:34.006Z,20.50
2018-02-17T03:29:34.001Z,21.40
2018-02-17T03:30:34.012Z,18.60
2018-02-17T03:31:34.001Z,18.50
2018-02-17T03:32:34.004Z,23.60
2018-02-17T03:33:34.003Z,22.40
2018-02-17T03:34:35.011Z,21.60
2018-02-17T03:35:34.009Z,19.40
2018-02-17T03:36:34.008Z,22.00
2018-02-17T03:37:34.006Z,21.30
2018-02-17T03:38:34.017Z,20.00
2018-02-17T03:39:34.021Z,20.40
2018-02-17T03:40:34.022Z,17.70
2018-02-17T03:41:34.016Z,21.90
2018-02-17T03:42:34.028Z,16.60
2018-02-17T03:43:34.026Z,21.00
2018-02-17T03:44:34.034Z,19.60
2018-02-17T03:45:34.024Z,23.10
2018-02-17T03:46:34.042Z,21.20
2018-02-17T03:47:34.027Z,16.70
2018-02-17T03:48:34.035Z,17.40
2018-02-17T03:49:34.032Z,18.80
2018-02-17T03:50:34.040Z,19.30
2018-02-17T03:51:34.031Z,17.70
2018-02-17T03:52:34.034Z,22.30
2018-02-17T03:53:34.031Z,21.30
2018-02-17T03:54:34.041Z,19.60
2018-02-17T03:55:34.035Z,16.10
2018-02-17T03:56:34.041Z,16.10
2018-02-17T03:57:34.034Z,20.00
2018-02-17T03:58:34.062Z,20.50
2018-02-17T03:59:34.045Z,20.40
2018-02-17T04:00:34.049Z,18.30
2018-02-17T04:01:34.793Z,17.50
2018-02-17T04:02:34.045Z,21.80
2018-02-17T04:03:34.063Z,21.40
2018-02-17T04:04:34.056Z,24.00
2018-02-17T04:05:34.052Z,20.20
2018-02-17T04:06:34.056Z,21.60
2018-02-17T04:07:34.051Z,18.60
2018-02-17T04:08:34.058Z,18.50
2018-02-17T04:09:34.077Z,23.70
2018-02-17T04:10:34.072Z,26.20
2018-02-17T04:11:34.067Z,21.60
2018-02-17T04:12:34.061Z,24.80
2018-02-17T04:13:34.059Z,23.40
2018-02-17T04:14:34.068Z,23.30
2018-02-17T04:15:34.077Z,19.90
2018-02-17T04:16:34.070Z,25.00
2018-02-17T04:17:34.072Z,21.10
2018-02-17T04:18:34.076Z,19.70
2018-02-17T04:19:34.066Z,20.20
2018-02-17T04:20:34.073Z,22.90
2018-02-17T04:21:34.067Z,19.20
2018-02-17T04:22:34.076Z,22.60
2018-02-17T04:23:34.078Z,19.80
2018-02-17T04:24:34.083Z,24.00
2018-02-17T04:25:34.087Z,28.50
2018-02-17T04:26:34.084Z,21.70
2018-02-17T04:27:34.078Z,23.40
2018-02-17T04:28:34.077Z,21.30
2018-02-17T04:29:34.077Z,21.50
2018-02-17T04:30:34.080Z,20.80
2018-02-17T04:31:34.083Z,19.20
2018-02-17T04:32:34.112Z,23.80
2018-02-17T04:33:34.088Z,20.10
2018-02-17T04:34:34.090Z,17.80
2018-02-17T04:35:34.095Z,19.00
2018-02-17T04:36:34.096Z,21.70
2018-02-17T04:37:34.090Z,24.40
2018-02-17T04:38:34.102Z,19.90
2018-02-17T04:39:34.093Z,18.80
2018-02-17T04:40:34.101Z,18.90
2018-02-17T04:41:34.095Z,22.90
2018-02-17T04:42:34.105Z,19.30
2018-02-17T04:43:34.098Z,19.10
2018-02-17T04:44:34.110Z,20.80
2018-02-17T04:45:34.105Z,21.70
2018-02-17T04:46:34.112Z,22.60
2018-02-17T04:47:34.104Z,23.20
2018-02-17T04:48:34.108Z,22.40
2018-02-17T04:49:34.106Z,20.50
2018-02-17T04:50:34.109Z,24.70
2018-02-17T04:51:34.121Z,21.30
2018-02-17T04:52:34.116Z,17.90
2018-02-17T04:53:34.119Z,23.10
2018-02-17T04:54:34.117Z,21.60
2018-02-17T04:55:34.113Z,21.80
2018-02-17T04:56:34.121Z,22.60
2018-02-17T04:57:34.115Z,20.90
2018-02-17T04:58:34.120Z,22.20
2018-02-17T04:59:34.119Z,23.20
2018-02-17T05:00:34.122Z,23.80
2018-02-17T05:01:34.120Z,23.60
2018-02-17T05:02:34.128Z,25.40
2018-02-17T05:03:34.119Z,20.70
2018-02-17T05:04:34.132Z,18.20
2018-02-17T05:05:34.123Z,21.00
2018-02-17T05:06:34.136Z,21.40
2018-02-17T05:07:34.142Z,21.80
2018-02-17T05:08:34.138Z,19.90
2018-02-17T05:09:34.128Z,20.30
2018-02-17T05:10:34.132Z,20.50
2018-02-17T05:11:34.136Z,25.50
2018-02-17T05:12:34.135Z,21.10
2018-02-17T05:13:34.137Z,22.70
2018-02-17T05:14:34.135Z,23.40
2018-02-17T05:15:34.141Z,25.60
2018-02-17T05:16:34.142Z,23.90
2018-02-17T05:17:34.132Z,21.50
2018-02-17T05:18:34.140Z,22.00
2018-02-17T05:19:34.142Z,24.40
2018-02-17T05:20:34.142Z,24.20
2018-02-17T05:21:34.137Z,20.90
2018-02-17T05:22:34.156Z,25.20
2018-02-17T05:23:34.152Z,20.80
2018-02-17T05:24:34.162Z,22.40
2018-02-17T05:25:34.156Z,24.60
2018-02-17T05:26:34.150Z,23.70
2018-02-17T05:27:34.153Z,23.20
2018-02-17T05:28:34.157Z,22.00
2018-02-17T05:29:34.162Z,23.10
2018-02-17T05:30:34.150Z,23.20
2018-02-17T05:31:34.152Z,25.40
2018-02-17T05:32:34.165Z,27.30
2018-02-17T05:33:34.156Z,24.00
2018-02-17T05:34:34.168Z,24.20
2018-02-17T05:35:34.162Z,21.50
2018-02-17T05:36:34.160Z,24.80
2018-02-17T05:37:34.165Z,24.10
2018-02-17T05:38:34.160Z,27.00
2018-02-17T05:39:34.167Z,27.70
2018-02-17T05:40:34.160Z,28.40
2018-02-17T05:41:34.161Z,26.00
2018-02-17T05:42:34.173Z,24.70
2018-02-17T05:43:34.170Z,24.70
2018-02-17T05:44:34.174Z,22.90
2018-02-17T05:45:34.164Z,28.30
2018-02-17T05:46:34.178Z,24.10
2018-02-17T05:47:34.172Z,24.30
2018-02-17T05:48:34.173Z,23.00
2018-02-17T05:49:34.186Z,22.70
2018-02-17T05:50:34.175Z,26.40
2018-02-17T05:51:34.180Z,22.20
2018-02-17T05:52:34.184Z,27.10
2018-02-17T05:53:34.175Z,27.00
2018-02-17T05:54:34.198Z,23.50
2018-02-17T05:55:34.177Z,19.80
2018-02-17T05:56:34.182Z,21.40
2018-02-17T05:57:34.179Z,23.50
2018-02-17T05:58:34.198Z,24.10
2018-02-17T05:59:34.182Z,24.90
2018-02-17T06:00:34.183Z,24.40
2018-02-17T06:01:34.192Z,27.50
2018-02-17T06:02:34.191Z,21.80
2018-02-17T06:03:34.178Z,25.60
2018-02-17T06:04:34.203Z,25.60
2018-02-17T06:05:34.206Z,21.30
2018-02-17T06:06:34.194Z,29.00
2018-02-17T06:07:34.202Z,29.80
2018-02-17T06:08:34.238Z,23.20
2018-02-17T06:09:34.190Z,25.70
2018-02-17T06:10:34.196Z,25.80
2018-02-17T06:11:34.192Z,26.20
2018-02-17T06:12:34.199Z,24.70
2018-02-17T06:13:34.201Z,25.10
2018-02-17T06:14:34.205Z,24.10
2018-02-17T06:15:34.207Z,23.00
2018-02-17T06:16:34.208Z,23.00
2018-02-17T06:17:34.199Z,25.10
2018-02-17T06:18:34.203Z,29.80
2018-02-17T06:19:34.206Z,25.70
2018-02-17T06:20:34.227Z,28.60
2018-02-17T06:21:34.262Z,25.50
2018-02-17T06:22:34.232Z,26.60
2018-02-17T06:23:34.203Z,26.30
2018-02-17T06:24:34.206Z,26.40
2018-02-17T06:25:34.207Z,27.40
2018-02-17T06:26:34.207Z,27.30
2018-02-17T06:27:34.208Z,23.20
2018-02-17T06:28:34.227Z,27.90
2018-02-17T06:29:34.215Z,26.90
2018-02-17T06:30:34.215Z,20.70
2018-02-17T06:31:34.214Z,25.20
2018-02-17T06:32:34.228Z,27.10
2018-02-17T06:33:34.370Z,26.70
2018-02-17T06:34:34.240Z,25.90
2018-02-17T06:35:34.218Z,22.80
2018-02-17T06:36:34.220Z,25.20
2018-02-17T06:37:34.218Z,26.00
2018-02-17T06:38:34.253Z,24.40
2018-02-17T06:39:34.230Z,22.80
2018-02-17T06:40:34.223Z,24.70
2018-02-17T06:41:34.234Z,27.80
2018-02-17T06:42:34.222Z,23.90
2018-02-17T06:43:34.224Z,23.50
2018-02-17T06:44:34.230Z,22.00
2018-02-17T06:45:34.226Z,25.70
2018-02-17T06:46:34.234Z,26.80
2018-02-17T06:47:34.231Z,24.20
2018-02-17T06:48:34.242Z,19.60
2018-02-17T06:49:34.235Z,24.30
2018-02-17T06:50:34.234Z,27.50
2018-02-17T06:51:34.231Z,25.30
2018-02-17T06:52:34.241Z,24.80
2018-02-17T06:53:34.262Z,22.80
2018-02-17T06:54:34.244Z,26.20
2018-02-17T06:55:34.233Z,26.50
2018-02-17T06:56:34.242Z,23.70
2018-02-17T06:57:34.262Z,26.40
2018-02-17T06:58:34.240Z,23.70
2018-02-17T06:59:34.342Z,23.60
2018-02-17T07:00:34.365Z,27.40
2018-02-17T07:01:34.323Z,26.20
2018-02-17T07:02:34.242Z,25.80
2018-02-17T07:03:34.364Z,25.00
2018-02-17T07:04:34.260Z,25.80
2018-02-17T07:05:34.362Z,25.10
2018-02-17T07:06:34.405Z,27.60
2018-02-17T07:07:34.314Z,28.50
2018-02-17T07:08:34.300Z,23.20
2018-02-17T07:09:34.288Z,25.70
2018-02-17T07:10:34.259Z,26.50
2018-02-17T07:11:35.322Z,24.10
2018-02-17T07:12:34.265Z,25.60
2018-02-17T07:13:34.285Z,28.40
2018-02-17T07:14:34.258Z,25.90
2018-02-17T07:15:34.344Z,23.70
2018-02-17T07:16:34.266Z,24.70
2018-02-17T07:17:34.380Z,23.20
2018-02-17T07:18:34.325Z,26.00
2018-02-17T07:19:34.371Z,25.30
2018-02-17T07:20:34.264Z,25.00
2018-02-17T07:21:34.369Z,25.80
2018-02-17T07:22:34.262Z,25.10
2018-02-17T07:23:34.275Z,26.30
2018-02-17T07:24:34.290Z,29.80
2018-02-17T07:25:34.402Z,27.00
2018-02-17T07:26:34.345Z,28.30
2018-02-17T07:27:34.414Z,29.20
2018-02-17T07:28:34.295Z,28.30
2018-02-17T07:29:34.424Z,25.90
2018-02-17T07:30:34.270Z,30.50
2018-02-17T07:31:34.362Z,31.60
2018-02-17T07:32:34.273Z,28.40
2018-02-17T07:33:35.397Z,28.70
2018-02-17T07:34:34.306Z,28.30
2018-02-17T07:35:34.453Z,27.50
2018-02-17T07:36:34.286Z,26.20
2018-02-17T07:37:34.396Z,26.40
2018-02-17T07:38:34.275Z,30.10
2018-02-17T07:39:34.350Z,26.70
2018-02-17T07:40:34.290Z,27.90
2018-02-17T07:41:34.322Z,31.60
2018-02-17T07:42:34.283Z,33.10
2018-02-17T07:43:34.320Z,31.60
2018-02-17T07:44:34.286Z,32.40
2018-02-17T07:45:34.332Z,32.50
2018-02-17T07:46:34.283Z,35.20
2018-02-17T07:47:35.365Z,29.10
2018-02-17T07:48:34.286Z,35.00
2018-02-17T07:49:34.363Z,29.20
2018-02-17T07:50:34.298Z,31.80
2018-02-17T07:51:34.530Z,33.70
2018-02-17T07:52:34.292Z,29.90
2018-02-17T07:53:34.383Z,28.60
2018-02-17T07:54:34.293Z,31.90
2018-02-17T07:55:34.408Z,31.60
2018-02-17T07:56:34.311Z,30.10
2018-02-17T07:57:34.308Z,31.40
2018-02-17T07:58:34.290Z,29.70
2018-02-17T07:59:34.319Z,32.30
2018-02-17T08:00:34.299Z,32.80
2018-02-17T08:01:34.332Z,35.10
2018-02-17T08:02:34.324Z,31.90
2018-02-17T08:03:34.299Z,30.10
2018-02-17T08:04:34.305Z,31.70
2018-02-17T08:05:34.312Z,28.30
2018-02-17T08:06:34.302Z,33.30
2018-02-17T08:07:34.376Z,31.70
2018-02-17T08:08:34.311Z,29.40
2018-02-17T08:09:34.393Z,31.70
2018-02-17T08:10:34.330Z,31.10
2018-02-17T08:11:34.398Z,30.50
2018-02-17T08:12:34.304Z,32.20
2018-02-17T08:13:34.409Z,34.40
2018-02-17T08:14:34.309Z,35.40
2018-02-17T08:15:34.423Z,30.80
2018-02-17T08:16:35.286Z,32.20
2018-02-17T08:17:34.335Z,35.20
2018-02-17T08:18:34.319Z,31.90
2018-02-17T08:19:34.351Z,37.10
2018-02-17T08:20:34.318Z,31.50
2018-02-17T08:21:34.361Z,30.80
2018-02-17T08:22:34.324Z,35.30
2018-02-17T08:23:34.373Z,32.70
2018-02-17T08:24:34.339Z,30.90
2018-02-17T08:25:34.335Z,33.40
2018-02-17T08:26:34.355Z,31.70
2018-02-17T08:27:34.324Z,35.70
2018-02-17T08:28:34.326Z,34.50
2018-02-17T08:29:34.320Z,32.90
2018-02-17T08:30:34.324Z,31.30
2018-02-17T08:31:34.338Z,33.50
2018-02-17T08:32:34.485Z,34.20
2018-02-17T08:33:34.336Z,30.40
2018-02-17T08:34:34.330Z,34.70
2018-02-17T08:35:34.330Z,30.90
2018-02-17T08:36:34.332Z,30.70
2018-02-17T08:37:35.442Z,29.50
2018-02-17T08:38:34.352Z,32.30
2018-02-17T08:39:34.427Z,32.30
2018-02-17T08:40:34.336Z,35.80
2018-02-17T08:41:34.440Z,37.90
2018-02-17T08:42:34.344Z,35.10
2018-02-17T08:43:34.404Z,34.70
2018-02-17T08:44:34.337Z,31.50
2018-02-17T08:45:34.417Z,35.40
2018-02-17T08:46:34.344Z,36.60
2018-02-17T08:47:34.425Z,33.30
2018-02-17T08:48:34.339Z,31.20
2018-02-17T08:49:34.437Z,30.20
2018-02-17T08:50:34.348Z,31.30
2018-02-17T08:51:34.454Z,32.70
2018-02-17T08:52:34.349Z,32.80
2018-02-17T08:53:34.369Z,31.90
2018-02-17T08:54:34.351Z,34.50
2018-02-17T08:55:34.375Z,32.20
2018-02-17T08:56:34.353Z,35.10
2018-02-17T08:57:34.398Z,35.00
2018-02-17T08:58:34.355Z,33.90
2018-02-17T08:59:34.400Z,33.60
2018-02-17T09:00:34.356Z,35.60
2018-02-17T09:01:34.419Z,36.00
2018-02-17T09:02:34.353Z,32.90
2018-02-17T09:03:35.450Z,33.40
2018-02-17T09:04:34.348Z,33.90
2018-02-17T09:05:34.456Z,34.60
2018-02-17T09:06:34.368Z,33.60
2018-02-17T09:07:34.452Z,33.60
2018-02-17T09:08:34.356Z,31.90
2018-02-17T09:09:34.480Z,34.00
2018-02-17T09:10:34.357Z,36.40
2018-02-17T09:11:34.386Z,32.80
2018-02-17T09:12:34.359Z,34.60
2018-02-17T09:13:34.410Z,37.30
2018-02-17T09:14:34.361Z,36.80
2018-02-17T09:15:34.413Z,34.30
2018-02-17T09:16:34.365Z,33.10
2018-02-17T09:17:34.426Z,37.00
2018-02-17T09:18:34.371Z,37.00
2018-02-17T09:19:34.432Z,35.90
2018-02-17T09:20:34.370Z,33.10
2018-02-17T09:21:34.445Z,35.90
2018-02-17T09:22:34.369Z,40.20
2018-02-17T09:23:34.449Z,35.20
2018-02-17T09:24:34.390Z,38.40
2018-02-17T09:25:34.468Z,40.20
2018-02-17T09:26:34.374Z,34.00
2018-02-17T09:27:34.490Z,35.60
2018-02-17T09:28:34.376Z,38.10
2018-02-17T09:29:34.397Z,33.30
2018-02-17T09:30:34.387Z,34.60
2018-02-17T09:31:34.420Z,35.80
2018-02-17T09:32:34.377Z,34.20
2018-02-17T09:33:34.413Z,35.20
2018-02-17T09:34:34.385Z,38.00
2018-02-17T09:35:34.441Z,37.40
2018-02-17T09:36:34.387Z,37.60
2018-02-17T09:37:34.449Z,38.30
2018-02-17T09:38:34.390Z,36.70
2018-02-17T09:39:34.468Z,39.00
2018-02-17T09:40:34.387Z,41.10
2018-02-17T09:41:34.469Z,36.80
2018-02-17T09:42:34.392Z,39.10
2018-02-17T09:43:34.483Z,35.20
2018-02-17T09:44:34.393Z,33.90
2018-02-17T09:45:34.533Z,35.80
2018-02-17T09:46:34.392Z,36.70
2018-02-17T09:47:34.514Z,36.20
2018-02-17T09:48:34.423Z,36.80
2018-02-17T09:49:34.426Z,37.90
2018-02-17T09:50:34.401Z,37.70
2018-02-17T09:51:34.426Z,34.70
2018-02-17T09:52:34.404Z,38.40
2018-02-17T09:53:34.446Z,34.40
2018-02-17T09:54:34.412Z,36.00
2018-02-17T09:55:34.639Z,36.60
2018-02-17T09:56:34.414Z,37.40
2018-02-17T09:57:34.472Z,38.10
2018-02-17T09:58:34.409Z,40.60
2018-02-17T09:59:34.606Z,39.90
2018-02-17T10:00:34.426Z,37.30
2018-02-17T10:01:34.496Z,41.90
2018-02-17T10:02:34.402Z,35.60
2018-02-17T10:03:34.504Z,44.90
2018-02-17T10:04:34.407Z,35.50
2018-02-17T10:05:35.459Z,38.70
2018-02-17T10:06:34.418Z,42.00
2018-02-17T10:07:34.432Z,37.30
2018-02-17T10:08:34.417Z,39.70
2018-02-17T10:09:34.451Z,38.10
2018-02-17T10:10:34.417Z,39.40
2018-02-17T10:11:34.457Z,33.20
2018-02-17T10:12:34.423Z,37.00
2018-02-17T10:13:34.472Z,31.20
2018-02-17T10:14:34.423Z,30.60
2018-02-17T10:15:34.487Z,36.10
2018-02-17T10:16:34.417Z,34.70
2018-02-17T10:17:34.493Z,34.00
2018-02-17T10:18:34.472Z,35.00
2018-02-17T10:19:34.505Z,34.30
2018-02-17T10:20:34.430Z,36.50
2018-02-17T10:21:34.519Z,37.30
2018-02-17T10:22:34.440Z,35.00
2018-02-17T10:23:34.545Z,35.20
2018-02-17T10:24:34.435Z,35.90
2018-02-17T10:25:34.488Z,43.00
2018-02-17T10:26:34.430Z,36.20
2018-02-17T10:27:34.469Z,40.30
2018-02-17T10:28:34.442Z,38.50
2018-02-17T10:29:36.296Z,40.30
2018-02-17T10:30:35.498Z,35.10
2018-02-17T10:31:34.445Z,39.80
2018-02-17T10:32:34.503Z,37.40
2018-02-17T10:33:34.446Z,37.90
2018-02-17T10:34:34.502Z,40.20
2018-02-17T10:35:34.503Z,36.70
2018-02-17T10:36:34.520Z,33.70
2018-02-17T10:37:34.441Z,38.60
2018-02-17T10:38:34.537Z,36.00
2018-02-17T10:39:34.444Z,40.00
2018-02-17T10:40:34.561Z,37.60
2018-02-17T10:41:34.459Z,38.80
2018-02-17T10:42:34.554Z,36.90
2018-02-17T10:43:34.460Z,36.80
2018-02-17T10:44:34.464Z,38.50
2018-02-17T10:45:34.471Z,39.80
2018-02-17T10:46:34.477Z,34.90
2018-02-17T10:47:34.482Z,37.20
2018-02-17T10:48:34.510Z,41.30
2018-02-17T10:49:34.452Z,38.10
2018-02-17T10:50:34.472Z,41.80
2018-02-17T10:51:34.462Z,39.50
2018-02-17T10:52:34.516Z,42.00
2018-02-17T10:53:34.456Z,42.10
2018-02-17T10:54:34.587Z,38.60
2018-02-17T10:55:34.472Z,39.60
2018-02-17T10:56:34.554Z,35.90
2018-02-17T10:57:34.472Z,36.90
2018-02-17T10:58:34.657Z,39.00
2018-02-17T10:59:34.484Z,39.80
2018-02-17T11:00:34.579Z,38.80
2018-02-17T11:01:34.478Z,40.60
2018-02-17T11:02:34.586Z,37.70
2018-02-17T11:03:34.468Z,36.40
2018-02-17T11:04:34.485Z,40.10
2018-02-17T11:05:34.481Z,42.10
2018-02-17T11:06:34.509Z,39.80
2018-02-17T11:07:34.475Z,39.90
2018-02-17T11:08:34.512Z,36.40
2018-02-17T11:09:34.476Z,35.30
2018-02-17T11:10:34.533Z,41.20
2018-02-17T11:11:34.488Z,35.40
2018-02-17T11:12:34.563Z,35.30
2018-02-17T11:13:34.495Z,47.00
2018-02-17T11:14:35.580Z,39.80
2018-02-17T11:15:34.485Z,40.60
2018-02-17T11:16:34.485Z,39.00
2018-02-17T11:17:34.484Z,41.50
2018-02-17T11:18:34.590Z,37.40
2018-02-17T11:19:34.492Z,40.70
2018-02-17T11:20:34.601Z,37.90
2018-02-17T11:21:34.484Z,37.60
2018-02-17T11:22:34.611Z,35.50
2018-02-17T11:23:34.495Z,38.10
2018-02-17T11:24:34.522Z,35.20
2018-02-17T11:25:34.508Z,40.60
2018-02-17T11:26:34.528Z,34.80
2018-02-17T11:27:34.497Z,41.60
2018-02-17T11:28:34.542Z,42.60
2018-02-17T11:29:34.505Z,42.20
2018-02-17T11:30:34.556Z,41.10
2018-02-17T11:31:34.507Z,40.90
2018-02-17T11:32:34.565Z,46.50
2018-02-17T11:33:34.506Z,47.50
2018-02-17T11:34:35.616Z,44.00
2018-02-17T11:35:34.510Z,47.00
2018-02-17T11:36:34.594Z,53.70
2018-02-17T11:37:34.514Z,43.00
2018-02-17T11:38:34.610Z,45.40
2018-02-17T11:39:34.528Z,48.30
2018-02-17T11:40:34.624Z,44.00
2018-02-17T11:41:34.513Z,43.00
2018-02-17T11:42:34.544Z,37.80
2018-02-17T11:43:34.528Z,38.00
2018-02-17T11:44:34.545Z,36.50
2018-02-17T11:45:34.522Z,43.70
2018-02-17T11:46:34.556Z,37.90
2018-02-17T11:47:34.525Z,36.20
2018-02-17T11:48:34.574Z,36.50
2018-02-17T11:49:34.525Z,38.70
2018-02-17T11:50:34.578Z,35.30
2018-02-17T11:51:34.528Z,33.60
2018-02-17T11:52:34.597Z,36.10
2018-02-17T11:53:34.537Z,34.90
2018-02-17T11:54:34.605Z,39.30
2018-02-17T11:55:34.546Z,35.70
2018-02-17T11:56:34.637Z,36.20
2018-02-17T11:57:34.561Z,31.90
2018-02-17T11:58:35.655Z,36.90
2018-02-17T11:59:34.585Z,35.50
2018-02-17T12:00:34.645Z,33.70
2018-02-17T12:01:34.549Z,33.70
2018-02-17T12:02:34.679Z,32.00
2018-02-17T12:03:34.747Z,31.20
2018-02-17T12:04:34.568Z,34.80
2018-02-17T12:05:34.551Z,37.40
2018-02-17T12:06:35.215Z,35.40
2018-02-17T12:07:34.560Z,27.20
2018-02-17T12:08:34.606Z,28.10
2018-02-17T12:09:34.796Z,34.10
2018-02-17T12:10:34.640Z,28.20
2018-02-17T12:11:34.553Z,27.80
2018-02-17T12:12:34.617Z,31.40
2018-02-17T12:13:34.568Z,29.60
2018-02-17T12:14:34.630Z,31.90
2018-02-17T12:15:34.578Z,38.20
2018-02-17T12:16:34.950Z,31.10
2018-02-17T12:17:34.587Z,26.20
2018-02-17T12:18:34.673Z,33.90
2018-02-17T12:19:34.594Z,26.40
2018-02-17T12:20:34.674Z,26.50
2018-02-17T12:21:34.578Z,27.70
2018-02-17T12:22:34.810Z,33.00
2018-02-17T12:23:34.576Z,27.10
2018-02-17T12:24:35.623Z,27.10
2018-02-17T12:25:34.578Z,32.50
2018-02-17T12:26:34.617Z,30.10
2018-02-17T12:27:34.591Z,27.80
2018-02-17T12:28:34.619Z,26.60
2018-02-17T12:29:34.588Z,26.00
2018-02-17T12:30:34.686Z,25.90
2018-02-17T12:31:34.591Z,24.40
2018-02-17T12:32:34.645Z,33.80
2018-02-17T12:33:34.664Z,29.20
2018-02-17T12:34:34.657Z,29.70
2018-02-17T12:35:34.593Z,29.10
2018-02-17T12:36:34.670Z,24.00
2018-02-17T12:37:34.596Z,26.10
2018-02-17T12:38:34.686Z,29.70
2018-02-17T12:39:34.600Z,30.20
2018-02-17T12:40:34.614Z,29.50
2018-02-17T12:41:34.609Z,28.20
2018-02-17T12:42:34.710Z,28.60
2018-02-17T12:43:34.608Z,32.70
2018-02-17T12:44:34.722Z,24.30
2018-02-17T12:45:34.613Z,29.30
2018-02-17T12:46:34.637Z,30.60
2018-02-17T12:47:34.615Z,31.40
2018-02-17T12:48:34.646Z,27.30
2018-02-17T12:49:34.648Z,27.60
2018-02-17T12:50:34.669Z,25.80
2018-02-17T12:51:34.621Z,27.40
2018-02-17T12:52:34.671Z,32.40